sensor_id;sensor_type;location;lat;lon;timestamp;P1;durP1;ratioP1;P2;durP2;ratioP2
11984;SDS011;6052;53.246;10.368;2023-10-09T00:01:03;2.72;;;1.10;;
11984;SDS011;6052;53.246;10.368;2023-10-09T00:03:40;2.42;;;1.30;;
11984;SDS011;6052;53.246;10.368;2023-10-09T00:06:11;1.17;;;0.90;;
11984;SDS011;6052;53.246;10.368;2023-10-09T00:08:41;5.65;;;1.40;;
11984;SDS011;6052;53.246;10.368;2023-10-09T00:11:19;1.95;;;1.20;;
11984;SDS011;6052;53.246;10.368;2023-10-09T00:13:53;1.85;;;1.23;;
11984;SDS011;6052;53.246;10.368;2023-10-09T00:16:24;2.10;;;1.13;;
11984;SDS011;6052;53.246;10.368;2023-10-09T00:19:03;1.67;;;1.10;;
11984;SDS011;6052;53.246;10.368;2023-10-09T00:21:44;1.70;;;1.00;;
11984;SDS011;6052;53.246;10.368;2023-10-09T00:24:13;1.20;;;1.10;;
11984;SDS011;6052;53.246;10.368;2023-10-09T00:26:53;1.50;;;0.90;;
11984;SDS011;6052;53.246;10.368;2023-10-09T00:29:38;2.30;;;1.10;;
11984;SDS011;6052;53.246;10.368;2023-10-09T00:32:11;2.65;;;1.10;;
11984;SDS011;6052;53.246;10.368;2023-10-09T00:34:49;1.80;;;1.40;;
11984;SDS011;6052;53.246;10.368;2023-10-09T00:37:19;1.98;;;1.20;;
11984;SDS011;6052;53.246;10.368;2023-10-09T00:39:51;2.00;;;1.40;;
11984;SDS011;6052;53.246;10.368;2023-10-09T00:42:27;2.22;;;1.10;;
11984;SDS011;6052;53.246;10.368;2023-10-09T00:44:59;1.52;;;1.10;;
11984;SDS011;6052;53.246;10.368;2023-10-09T00:47:30;4.68;;;1.20;;
11984;SDS011;6052;53.246;10.368;2023-10-09T00:50:08;3.75;;;1.38;;
11984;SDS011;6052;53.246;10.368;2023-10-09T00:52:48;1.20;;;0.88;;
11984;SDS011;6052;53.246;10.368;2023-10-09T00:55:28;3.67;;;1.50;;
11984;SDS011;6052;53.246;10.368;2023-10-09T00:58:14;1.63;;;1.30;;
11984;SDS011;6052;53.246;10.368;2023-10-09T01:00:50;1.95;;;1.15;;
11984;SDS011;6052;53.246;10.368;2023-10-09T01:03:20;3.33;;;1.30;;
11984;SDS011;6052;53.246;10.368;2023-10-09T01:05:50;4.47;;;1.20;;
11984;SDS011;6052;53.246;10.368;2023-10-09T01:08:24;1.65;;;1.10;;
11984;SDS011;6052;53.246;10.368;2023-10-09T01:11:10;1.23;;;0.90;;
11984;SDS011;6052;53.246;10.368;2023-10-09T01:13:47;4.47;;;1.30;;
11984;SDS011;6052;53.246;10.368;2023-10-09T01:16:38;3.25;;;1.60;;
11984;SDS011;6052;53.246;10.368;2023-10-09T01:19:10;4.03;;;1.40;;
11984;SDS011;6052;53.246;10.368;2023-10-09T01:21:50;4.32;;;1.23;;
11984;SDS011;6052;53.246;10.368;2023-10-09T01:24:22;2.75;;;1.45;;
11984;SDS011;6052;53.246;10.368;2023-10-09T01:26:53;1.27;;;1.08;;
11984;SDS011;6052;53.246;10.368;2023-10-09T01:29:25;1.50;;;1.17;;
11984;SDS011;6052;53.246;10.368;2023-10-09T01:31:56;1.83;;;1.30;;
11984;SDS011;6052;53.246;10.368;2023-10-09T01:34:29;3.08;;;1.30;;
11984;SDS011;6052;53.246;10.368;2023-10-09T01:37:09;3.05;;;1.40;;
11984;SDS011;6052;53.246;10.368;2023-10-09T01:39:48;2.90;;;1.35;;
11984;SDS011;6052;53.246;10.368;2023-10-09T01:42:19;2.10;;;1.45;;
11984;SDS011;6052;53.246;10.368;2023-10-09T01:45:01;2.05;;;1.50;;
11984;SDS011;6052;53.246;10.368;2023-10-09T01:47:37;4.78;;;1.30;;
11984;SDS011;6052;53.246;10.368;2023-10-09T01:50:07;2.30;;;1.48;;
11984;SDS011;6052;53.246;10.368;2023-10-09T01:52:46;4.50;;;1.33;;
11984;SDS011;6052;53.246;10.368;2023-10-09T01:55:20;3.35;;;1.50;;
11984;SDS011;6052;53.246;10.368;2023-10-09T01:58:00;3.47;;;1.23;;
11984;SDS011;6052;53.246;10.368;2023-10-09T02:00:32;1.52;;;1.30;;
11984;SDS011;6052;53.246;10.368;2023-10-09T02:03:09;1.45;;;1.10;;
11984;SDS011;6052;53.246;10.368;2023-10-09T02:05:51;2.78;;;1.02;;
11984;SDS011;6052;53.246;10.368;2023-10-09T02:08:26;2.25;;;1.13;;
11984;SDS011;6052;53.246;10.368;2023-10-09T02:10:58;2.15;;;1.10;;
11984;SDS011;6052;53.246;10.368;2023-10-09T02:13:29;1.00;;;0.90;;
11984;SDS011;6052;53.246;10.368;2023-10-09T02:16:01;2.42;;;1.48;;
11984;SDS011;6052;53.246;10.368;2023-10-09T02:18:42;3.03;;;1.60;;
11984;SDS011;6052;53.246;10.368;2023-10-09T02:21:22;2.53;;;1.80;;
11984;SDS011;6052;53.246;10.368;2023-10-09T02:24:00;1.63;;;1.05;;
11984;SDS011;6052;53.246;10.368;2023-10-09T02:26:35;1.77;;;1.33;;
11984;SDS011;6052;53.246;10.368;2023-10-09T02:29:30;1.83;;;1.20;;
11984;SDS011;6052;53.246;10.368;2023-10-09T02:32:01;3.35;;;1.40;;
11984;SDS011;6052;53.246;10.368;2023-10-09T02:34:40;1.83;;;1.25;;
11984;SDS011;6052;53.246;10.368;2023-10-09T02:37:13;2.22;;;1.05;;
11984;SDS011;6052;53.246;10.368;2023-10-09T02:39:49;3.35;;;1.30;;
11984;SDS011;6052;53.246;10.368;2023-10-09T02:42:21;2.05;;;1.40;;
11984;SDS011;6052;53.246;10.368;2023-10-09T02:44:54;1.83;;;1.17;;
11984;SDS011;6052;53.246;10.368;2023-10-09T02:47:26;3.20;;;1.70;;
11984;SDS011;6052;53.246;10.368;2023-10-09T02:50:04;2.08;;;1.02;;
11984;SDS011;6052;53.246;10.368;2023-10-09T02:52:45;5.15;;;1.45;;
11984;SDS011;6052;53.246;10.368;2023-10-09T02:55:19;1.63;;;1.20;;
11984;SDS011;6052;53.246;10.368;2023-10-09T02:57:56;1.50;;;1.00;;
11984;SDS011;6052;53.246;10.368;2023-10-09T03:00:36;2.13;;;1.10;;
11984;SDS011;6052;53.246;10.368;2023-10-09T03:03:11;1.42;;;1.10;;
11984;SDS011;6052;53.246;10.368;2023-10-09T03:05:45;2.35;;;1.20;;
11984;SDS011;6052;53.246;10.368;2023-10-09T03:08:16;2.10;;;1.30;;
11984;SDS011;6052;53.246;10.368;2023-10-09T03:10:45;1.33;;;0.90;;
11984;SDS011;6052;53.246;10.368;2023-10-09T03:13:17;1.30;;;1.20;;
11984;SDS011;6052;53.246;10.368;2023-10-09T03:15:48;1.30;;;1.08;;
11984;SDS011;6052;53.246;10.368;2023-10-09T03:18:19;1.38;;;1.00;;
11984;SDS011;6052;53.246;10.368;2023-10-09T03:20:48;2.53;;;1.00;;
11984;SDS011;6052;53.246;10.368;2023-10-09T03:23:18;2.00;;;1.20;;
11984;SDS011;6052;53.246;10.368;2023-10-09T03:25:47;1.77;;;1.13;;
11984;SDS011;6052;53.246;10.368;2023-10-09T03:28:20;3.03;;;1.20;;
11984;SDS011;6052;53.246;10.368;2023-10-09T03:30:49;1.95;;;1.20;;
11984;SDS011;6052;53.246;10.368;2023-10-09T03:33:19;1.58;;;1.20;;
11984;SDS011;6052;53.246;10.368;2023-10-09T03:35:49;1.38;;;1.02;;
11984;SDS011;6052;53.246;10.368;2023-10-09T03:38:19;1.63;;;0.98;;
11984;SDS011;6052;53.246;10.368;2023-10-09T03:40:48;2.03;;;1.20;;
11984;SDS011;6052;53.246;10.368;2023-10-09T03:43:20;3.17;;;1.15;;
11984;SDS011;6052;53.246;10.368;2023-10-09T03:45:51;2.78;;;1.63;;
11984;SDS011;6052;53.246;10.368;2023-10-09T03:48:23;1.55;;;1.10;;
11984;SDS011;6052;53.246;10.368;2023-10-09T03:50:59;1.70;;;1.20;;
11984;SDS011;6052;53.246;10.368;2023-10-09T03:53:35;2.45;;;1.00;;
11984;SDS011;6052;53.246;10.368;2023-10-09T03:56:06;2.13;;;1.05;;
11984;SDS011;6052;53.246;10.368;2023-10-09T03:58:41;3.55;;;1.50;;
11984;SDS011;6052;53.246;10.368;2023-10-09T04:01:12;1.80;;;1.20;;
11984;SDS011;6052;53.246;10.368;2023-10-09T04:03:49;2.33;;;1.60;;
11984;SDS011;6052;53.246;10.368;2023-10-09T04:06:22;1.63;;;1.00;;
11984;SDS011;6052;53.246;10.368;2023-10-09T04:08:55;2.50;;;1.38;;
11984;SDS011;6052;53.246;10.368;2023-10-09T04:11:25;1.77;;;1.10;;
11984;SDS011;6052;53.246;10.368;2023-10-09T04:13:57;2.00;;;1.40;;
11984;SDS011;6052;53.246;10.368;2023-10-09T04:16:36;1.73;;;1.23;;
11984;SDS011;6052;53.246;10.368;2023-10-09T04:19:17;2.58;;;1.30;;
11984;SDS011;6052;53.246;10.368;2023-10-09T04:21:48;3.45;;;1.60;;
11984;SDS011;6052;53.246;10.368;2023-10-09T04:24:15;2.75;;;1.00;;
11984;SDS011;6052;53.246;10.368;2023-10-09T04:26:58;1.52;;;1.20;;
11984;SDS011;6052;53.246;10.368;2023-10-09T04:29:27;2.17;;;1.20;;
11984;SDS011;6052;53.246;10.368;2023-10-09T04:32:05;1.70;;;1.10;;
11984;SDS011;6052;53.246;10.368;2023-10-09T04:34:44;2.70;;;1.10;;
11984;SDS011;6052;53.246;10.368;2023-10-09T04:37:23;2.67;;;1.10;;
11984;SDS011;6052;53.246;10.368;2023-10-09T04:40:03;3.63;;;0.93;;
11984;SDS011;6052;53.246;10.368;2023-10-09T04:43:00;8.05;;;1.73;;
11984;SDS011;6052;53.246;10.368;2023-10-09T04:45:37;1.45;;;1.00;;
11984;SDS011;6052;53.246;10.368;2023-10-09T04:48:20;2.17;;;1.08;;
11984;SDS011;6052;53.246;10.368;2023-10-09T04:50:59;2.92;;;1.27;;
11984;SDS011;6052;53.246;10.368;2023-10-09T04:53:41;2.83;;;1.15;;
11984;SDS011;6052;53.246;10.368;2023-10-09T04:56:15;2.90;;;1.00;;
11984;SDS011;6052;53.246;10.368;2023-10-09T04:58:50;1.25;;;0.98;;
11984;SDS011;6052;53.246;10.368;2023-10-09T05:01:32;1.02;;;0.93;;
11984;SDS011;6052;53.246;10.368;2023-10-09T05:04:24;1.60;;;1.10;;
11984;SDS011;6052;53.246;10.368;2023-10-09T05:07:06;1.42;;;1.00;;
11984;SDS011;6052;53.246;10.368;2023-10-09T05:09:48;2.50;;;1.45;;
11984;SDS011;6052;53.246;10.368;2023-10-09T05:12:41;3.88;;;1.20;;
11984;SDS011;6052;53.246;10.368;2023-10-09T05:15:13;1.65;;;1.23;;
11984;SDS011;6052;53.246;10.368;2023-10-09T05:17:46;1.98;;;1.02;;
11984;SDS011;6052;53.246;10.368;2023-10-09T05:20:23;1.50;;;1.20;;
11984;SDS011;6052;53.246;10.368;2023-10-09T05:23:05;2.28;;;1.20;;
11984;SDS011;6052;53.246;10.368;2023-10-09T05:25:47;2.47;;;1.40;;
11984;SDS011;6052;53.246;10.368;2023-10-09T05:28:25;2.35;;;1.10;;
11984;SDS011;6052;53.246;10.368;2023-10-09T05:30:58;1.00;;;0.90;;
11984;SDS011;6052;53.246;10.368;2023-10-09T05:33:38;1.23;;;0.98;;
11984;SDS011;6052;53.246;10.368;2023-10-09T05:36:12;3.88;;;1.17;;
11984;SDS011;6052;53.246;10.368;2023-10-09T05:38:58;2.13;;;1.10;;
11984;SDS011;6052;53.246;10.368;2023-10-09T05:41:46;2.90;;;1.10;;
11984;SDS011;6052;53.246;10.368;2023-10-09T05:44:26;1.75;;;1.20;;
11984;SDS011;6052;53.246;10.368;2023-10-09T05:47:08;2.42;;;1.13;;
11984;SDS011;6052;53.246;10.368;2023-10-09T05:49:53;1.25;;;1.02;;
11984;SDS011;6052;53.246;10.368;2023-10-09T05:52:52;1.75;;;1.20;;
11984;SDS011;6052;53.246;10.368;2023-10-09T05:55:34;2.45;;;1.15;;
11984;SDS011;6052;53.246;10.368;2023-10-09T05:58:28;2.17;;;1.40;;
11984;SDS011;6052;53.246;10.368;2023-10-09T06:01:10;2.30;;;1.38;;
11984;SDS011;6052;53.246;10.368;2023-10-09T06:03:52;2.47;;;1.05;;
11984;SDS011;6052;53.246;10.368;2023-10-09T06:06:41;1.67;;;1.10;;
11984;SDS011;6052;53.246;10.368;2023-10-09T06:09:23;2.70;;;1.13;;
11984;SDS011;6052;53.246;10.368;2023-10-09T06:12:17;1.85;;;1.17;;
11984;SDS011;6052;53.246;10.368;2023-10-09T06:15:00;1.23;;;0.98;;
11984;SDS011;6052;53.246;10.368;2023-10-09T06:17:42;2.40;;;1.13;;
11984;SDS011;6052;53.246;10.368;2023-10-09T06:20:17;1.88;;;1.20;;
11984;SDS011;6052;53.246;10.368;2023-10-09T06:23:02;2.78;;;1.40;;
11984;SDS011;6052;53.246;10.368;2023-10-09T06:25:42;1.45;;;1.15;;
11984;SDS011;6052;53.246;10.368;2023-10-09T06:28:18;3.00;;;1.60;;
11984;SDS011;6052;53.246;10.368;2023-10-09T06:30:59;2.03;;;1.13;;
11984;SDS011;6052;53.246;10.368;2023-10-09T06:33:48;1.92;;;1.30;;
11984;SDS011;6052;53.246;10.368;2023-10-09T06:36:36;1.55;;;1.10;;
11984;SDS011;6052;53.246;10.368;2023-10-09T06:39:19;1.70;;;1.20;;
11984;SDS011;6052;53.246;10.368;2023-10-09T06:42:01;1.85;;;1.13;;
11984;SDS011;6052;53.246;10.368;2023-10-09T06:44:59;1.55;;;1.30;;
11984;SDS011;6052;53.246;10.368;2023-10-09T06:47:31;3.25;;;1.67;;
11984;SDS011;6052;53.246;10.368;2023-10-09T06:50:08;1.63;;;1.20;;
11984;SDS011;6052;53.246;10.368;2023-10-09T06:52:51;2.08;;;1.40;;
11984;SDS011;6052;53.246;10.368;2023-10-09T06:55:55;3.33;;;1.20;;
11984;SDS011;6052;53.246;10.368;2023-10-09T06:58:32;1.73;;;1.38;;
11984;SDS011;6052;53.246;10.368;2023-10-09T07:01:09;2.60;;;1.40;;
11984;SDS011;6052;53.246;10.368;2023-10-09T07:03:56;1.38;;;1.10;;
11984;SDS011;6052;53.246;10.368;2023-10-09T07:06:45;1.65;;;1.42;;
11984;SDS011;6052;53.246;10.368;2023-10-09T07:09:17;2.13;;;1.30;;
11984;SDS011;6052;53.246;10.368;2023-10-09T07:11:56;1.75;;;1.10;;
11984;SDS011;6052;53.246;10.368;2023-10-09T07:14:25;1.83;;;1.35;;
11984;SDS011;6052;53.246;10.368;2023-10-09T07:17:08;3.22;;;1.33;;
11984;SDS011;6052;53.246;10.368;2023-10-09T07:19:49;1.58;;;1.20;;
11984;SDS011;6052;53.246;10.368;2023-10-09T07:22:31;3.50;;;1.58;;
11984;SDS011;6052;53.246;10.368;2023-10-09T07:25:06;2.50;;;1.60;;
11984;SDS011;6052;53.246;10.368;2023-10-09T07:27:56;2.42;;;1.30;;
11984;SDS011;6052;53.246;10.368;2023-10-09T07:30:29;1.70;;;1.50;;
11984;SDS011;6052;53.246;10.368;2023-10-09T07:33:05;1.60;;;1.33;;
11984;SDS011;6052;53.246;10.368;2023-10-09T07:35:43;2.33;;;1.40;;
11984;SDS011;6052;53.246;10.368;2023-10-09T07:38:24;3.33;;;2.00;;
11984;SDS011;6052;53.246;10.368;2023-10-09T07:41:02;2.45;;;1.73;;
11984;SDS011;6052;53.246;10.368;2023-10-09T07:43:47;2.60;;;1.80;;
11984;SDS011;6052;53.246;10.368;2023-10-09T07:46:18;1.77;;;1.25;;
11984;SDS011;6052;53.246;10.368;2023-10-09T07:49:01;2.42;;;1.60;;
11984;SDS011;6052;53.246;10.368;2023-10-09T07:51:35;1.55;;;1.40;;
11984;SDS011;6052;53.246;10.368;2023-10-09T07:54:10;4.28;;;1.92;;
11984;SDS011;6052;53.246;10.368;2023-10-09T07:56:42;2.15;;;1.63;;
11984;SDS011;6052;53.246;10.368;2023-10-09T07:59:15;1.63;;;1.15;;
11984;SDS011;6052;53.246;10.368;2023-10-09T08:01:46;2.25;;;1.73;;
11984;SDS011;6052;53.246;10.368;2023-10-09T08:04:26;1.77;;;1.50;;
11984;SDS011;6052;53.246;10.368;2023-10-09T08:07:15;1.60;;;1.50;;
11984;SDS011;6052;53.246;10.368;2023-10-09T08:10:11;2.05;;;1.75;;
11984;SDS011;6052;53.246;10.368;2023-10-09T08:12:53;2.97;;;1.80;;
11984;SDS011;6052;53.246;10.368;2023-10-09T08:15:57;2.58;;;1.50;;
11984;SDS011;6052;53.246;10.368;2023-10-09T08:18:30;1.70;;;1.52;;
11984;SDS011;6052;53.246;10.368;2023-10-09T08:21:11;2.10;;;1.70;;
11984;SDS011;6052;53.246;10.368;2023-10-09T08:24:07;1.67;;;1.40;;
11984;SDS011;6052;53.246;10.368;2023-10-09T08:26:57;1.85;;;1.70;;
11984;SDS011;6052;53.246;10.368;2023-10-09T08:29:38;2.25;;;1.80;;
11984;SDS011;6052;53.246;10.368;2023-10-09T08:32:15;2.85;;;1.83;;
11984;SDS011;6052;53.246;10.368;2023-10-09T08:35:08;5.10;;;2.20;;
11984;SDS011;6052;53.246;10.368;2023-10-09T08:37:56;3.70;;;1.90;;
11984;SDS011;6052;53.246;10.368;2023-10-09T08:40:30;2.65;;;2.03;;
11984;SDS011;6052;53.246;10.368;2023-10-09T08:43:07;3.08;;;1.77;;
11984;SDS011;6052;53.246;10.368;2023-10-09T08:45:38;3.90;;;2.13;;
11984;SDS011;6052;53.246;10.368;2023-10-09T08:48:11;2.63;;;2.25;;
11984;SDS011;6052;53.246;10.368;2023-10-09T08:50:42;3.25;;;2.50;;
11984;SDS011;6052;53.246;10.368;2023-10-09T08:53:13;4.57;;;3.22;;
11984;SDS011;6052;53.246;10.368;2023-10-09T08:55:40;3.42;;;2.70;;
11984;SDS011;6052;53.246;10.368;2023-10-09T08:58:10;4.80;;;2.75;;
11984;SDS011;6052;53.246;10.368;2023-10-09T09:00:43;4.07;;;2.72;;
11984;SDS011;6052;53.246;10.368;2023-10-09T09:03:18;4.25;;;3.00;;
11984;SDS011;6052;53.246;10.368;2023-10-09T09:05:56;4.10;;;2.97;;
11984;SDS011;6052;53.246;10.368;2023-10-09T09:08:32;4.00;;;2.90;;
11984;SDS011;6052;53.246;10.368;2023-10-09T09:11:04;5.38;;;2.70;;
11984;SDS011;6052;53.246;10.368;2023-10-09T09:13:41;4.28;;;3.35;;
11984;SDS011;6052;53.246;10.368;2023-10-09T09:16:15;3.72;;;2.92;;
11984;SDS011;6052;53.246;10.368;2023-10-09T09:18:53;4.18;;;3.25;;
11984;SDS011;6052;53.246;10.368;2023-10-09T09:21:27;4.50;;;3.35;;
11984;SDS011;6052;53.246;10.368;2023-10-09T09:24:04;4.78;;;3.38;;
11984;SDS011;6052;53.246;10.368;2023-10-09T09:26:42;4.35;;;3.50;;
11984;SDS011;6052;53.246;10.368;2023-10-09T09:29:37;5.53;;;3.28;;
11984;SDS011;6052;53.246;10.368;2023-10-09T09:32:09;5.30;;;3.35;;
11984;SDS011;6052;53.246;10.368;2023-10-09T09:34:50;4.53;;;2.95;;
11984;SDS011;6052;53.246;10.368;2023-10-09T09:37:22;3.53;;;2.63;;
11984;SDS011;6052;53.246;10.368;2023-10-09T09:39:56;4.38;;;2.90;;
11984;SDS011;6052;53.246;10.368;2023-10-09T09:42:28;5.15;;;3.10;;
11984;SDS011;6052;53.246;10.368;2023-10-09T09:45:00;3.80;;;2.80;;
11984;SDS011;6052;53.246;10.368;2023-10-09T09:47:30;3.78;;;2.65;;
11984;SDS011;6052;53.246;10.368;2023-10-09T09:50:07;4.72;;;3.00;;
11984;SDS011;6052;53.246;10.368;2023-10-09T09:52:51;5.85;;;3.05;;
11984;SDS011;6052;53.246;10.368;2023-10-09T09:55:24;3.70;;;2.88;;
11984;SDS011;6052;53.246;10.368;2023-10-09T09:57:57;4.10;;;2.63;;
11984;SDS011;6052;53.246;10.368;2023-10-09T10:00:29;3.53;;;2.65;;
11984;SDS011;6052;53.246;10.368;2023-10-09T10:03:11;4.18;;;3.03;;
11984;SDS011;6052;53.246;10.368;2023-10-09T10:05:47;3.83;;;2.67;;
11984;SDS011;6052;53.246;10.368;2023-10-09T10:08:23;3.50;;;2.75;;
11984;SDS011;6052;53.246;10.368;2023-10-09T10:10:59;3.83;;;2.88;;
11984;SDS011;6052;53.246;10.368;2023-10-09T10:16:31;4.20;;;2.80;;
11984;SDS011;6052;53.246;10.368;2023-10-09T10:19:03;5.95;;;3.10;;
11984;SDS011;6052;53.246;10.368;2023-10-09T10:21:51;3.58;;;2.47;;
11984;SDS011;6052;53.246;10.368;2023-10-09T10:24:43;3.60;;;2.70;;
11984;SDS011;6052;53.246;10.368;2023-10-09T10:27:22;2.88;;;2.30;;
11984;SDS011;6052;53.246;10.368;2023-10-09T10:33:03;3.40;;;2.47;;
11984;SDS011;6052;53.246;10.368;2023-10-09T10:35:42;3.60;;;2.13;;
11984;SDS011;6052;53.246;10.368;2023-10-09T10:38:28;2.30;;;1.98;;
11984;SDS011;6052;53.246;10.368;2023-10-09T10:41:10;3.47;;;2.08;;
11984;SDS011;6052;53.246;10.368;2023-10-09T10:43:43;2.15;;;1.80;;
11984;SDS011;6052;53.246;10.368;2023-10-09T10:46:26;2.30;;;1.60;;
11984;SDS011;6052;53.246;10.368;2023-10-09T10:49:08;2.05;;;1.48;;
11984;SDS011;6052;53.246;10.368;2023-10-09T10:51:47;1.95;;;1.63;;
11984;SDS011;6052;53.246;10.368;2023-10-09T10:54:31;1.90;;;1.80;;
11984;SDS011;6052;53.246;10.368;2023-10-09T10:57:35;2.60;;;1.52;;
11984;SDS011;6052;53.246;10.368;2023-10-09T11:00:17;1.33;;;1.20;;
11984;SDS011;6052;53.246;10.368;2023-10-09T11:02:59;1.33;;;1.20;;
11984;SDS011;6052;53.246;10.368;2023-10-09T11:05:41;1.05;;;0.98;;
11984;SDS011;6052;53.246;10.368;2023-10-09T11:08:17;1.35;;;1.25;;
11984;SDS011;6052;53.246;10.368;2023-10-09T11:10:56;0.90;;;0.90;;
11984;SDS011;6052;53.246;10.368;2023-10-09T11:13:42;1.90;;;1.20;;
11984;SDS011;6052;53.246;10.368;2023-10-09T11:16:22;1.20;;;1.10;;
11984;SDS011;6052;53.246;10.368;2023-10-09T11:19:09;1.05;;;0.88;;
11984;SDS011;6052;53.246;10.368;2023-10-09T11:21:56;1.70;;;1.60;;
11984;SDS011;6052;53.246;10.368;2023-10-09T11:24:42;1.65;;;1.15;;
11984;SDS011;6052;53.246;10.368;2023-10-09T11:27:16;1.10;;;1.00;;
11984;SDS011;6052;53.246;10.368;2023-10-09T11:29:51;0.85;;;0.80;;
11984;SDS011;6052;53.246;10.368;2023-10-09T11:32:31;0.70;;;0.70;;
11984;SDS011;6052;53.246;10.368;2023-10-09T11:35:11;0.80;;;0.80;;
11984;SDS011;6052;53.246;10.368;2023-10-09T11:37:54;1.30;;;0.80;;
11984;SDS011;6052;53.246;10.368;2023-10-09T11:40:28;1.23;;;0.90;;
11984;SDS011;6052;53.246;10.368;2023-10-09T11:43:16;1.23;;;1.13;;
11984;SDS011;6052;53.246;10.368;2023-10-09T11:45:50;1.17;;;0.65;;
11984;SDS011;6052;53.246;10.368;2023-10-09T11:48:23;0.85;;;0.85;;
11984;SDS011;6052;53.246;10.368;2023-10-09T11:51:00;0.70;;;0.70;;
11984;SDS011;6052;53.246;10.368;2023-10-09T11:53:41;0.77;;;0.77;;
11984;SDS011;6052;53.246;10.368;2023-10-09T11:56:13;0.95;;;0.85;;
11984;SDS011;6052;53.246;10.368;2023-10-09T11:58:49;0.70;;;0.70;;
11984;SDS011;6052;53.246;10.368;2023-10-09T12:01:19;0.80;;;0.70;;
11984;SDS011;6052;53.246;10.368;2023-10-09T12:03:49;1.10;;;1.00;;
11984;SDS011;6052;53.246;10.368;2023-10-09T12:06:20;0.80;;;0.80;;
11984;SDS011;6052;53.246;10.368;2023-10-09T12:08:58;3.15;;;0.77;;
11984;SDS011;6052;53.246;10.368;2023-10-09T12:11:32;0.88;;;0.80;;
11984;SDS011;6052;53.246;10.368;2023-10-09T12:14:04;0.80;;;0.80;;
11984;SDS011;6052;53.246;10.368;2023-10-09T12:16:33;0.90;;;0.90;;
11984;SDS011;6052;53.246;10.368;2023-10-09T12:19:06;0.55;;;0.55;;
11984;SDS011;6052;53.246;10.368;2023-10-09T12:21:36;0.75;;;0.75;;
11984;SDS011;6052;53.246;10.368;2023-10-09T12:24:09;0.73;;;0.73;;
11984;SDS011;6052;53.246;10.368;2023-10-09T12:26:39;0.68;;;0.68;;
11984;SDS011;6052;53.246;10.368;2023-10-09T12:29:13;2.00;;;0.70;;
11984;SDS011;6052;53.246;10.368;2023-10-09T12:31:42;0.73;;;0.70;;
11984;SDS011;6052;53.246;10.368;2023-10-09T12:34:12;1.00;;;0.70;;
11984;SDS011;6052;53.246;10.368;2023-10-09T12:36:44;0.70;;;0.70;;
11984;SDS011;6052;53.246;10.368;2023-10-09T12:39:16;0.60;;;0.60;;
11984;SDS011;6052;53.246;10.368;2023-10-09T12:41:47;0.80;;;0.70;;
11984;SDS011;6052;53.246;10.368;2023-10-09T12:44:22;0.70;;;0.70;;
11984;SDS011;6052;53.246;10.368;2023-10-09T12:46:53;0.88;;;0.80;;
11984;SDS011;6052;53.246;10.368;2023-10-09T12:49:23;0.70;;;0.70;;
11984;SDS011;6052;53.246;10.368;2023-10-09T12:51:54;0.52;;;0.52;;
11984;SDS011;6052;53.246;10.368;2023-10-09T12:54:24;1.00;;;0.70;;
11984;SDS011;6052;53.246;10.368;2023-10-09T12:56:57;0.50;;;0.50;;
11984;SDS011;6052;53.246;10.368;2023-10-09T12:59:31;0.70;;;0.70;;
11984;SDS011;6052;53.246;10.368;2023-10-09T13:02:03;0.90;;;0.90;;
11984;SDS011;6052;53.246;10.368;2023-10-09T13:04:37;1.00;;;0.90;;
11984;SDS011;6052;53.246;10.368;2023-10-09T13:07:09;0.68;;;0.68;;
11984;SDS011;6052;53.246;10.368;2023-10-09T13:09:39;0.73;;;0.73;;
11984;SDS011;6052;53.246;10.368;2023-10-09T13:12:31;1.08;;;0.77;;
11984;SDS011;6052;53.246;10.368;2023-10-09T13:15:08;0.90;;;0.90;;
11984;SDS011;6052;53.246;10.368;2023-10-09T13:17:38;1.20;;;1.02;;
11984;SDS011;6052;53.246;10.368;2023-10-09T13:20:08;1.08;;;0.80;;
11984;SDS011;6052;53.246;10.368;2023-10-09T13:22:42;0.85;;;0.82;;
11984;SDS011;6052;53.246;10.368;2023-10-09T13:25:13;1.17;;;0.88;;
11984;SDS011;6052;53.246;10.368;2023-10-09T13:28:00;0.88;;;0.70;;
11984;SDS011;6052;53.246;10.368;2023-10-09T13:30:37;1.15;;;1.00;;
11984;SDS011;6052;53.246;10.368;2023-10-09T13:33:15;1.55;;;0.93;;
11984;SDS011;6052;53.246;10.368;2023-10-09T13:35:48;1.10;;;1.00;;
11984;SDS011;6052;53.246;10.368;2023-10-09T13:38:18;1.00;;;0.98;;
11984;SDS011;6052;53.246;10.368;2023-10-09T13:40:56;1.63;;;1.40;;
11984;SDS011;6052;53.246;10.368;2023-10-09T13:43:28;2.25;;;1.08;;
11984;SDS011;6052;53.246;10.368;2023-10-09T13:46:00;1.23;;;1.02;;
11984;SDS011;6052;53.246;10.368;2023-10-09T13:48:30;1.30;;;1.20;;
11984;SDS011;6052;53.246;10.368;2023-10-09T13:51:04;1.40;;;1.20;;
11984;SDS011;6052;53.246;10.368;2023-10-09T13:53:35;1.35;;;1.10;;
11984;SDS011;6052;53.246;10.368;2023-10-09T13:56:11;1.05;;;1.00;;
11984;SDS011;6052;53.246;10.368;2023-10-09T13:58:45;1.45;;;1.25;;
11984;SDS011;6052;53.246;10.368;2023-10-09T14:01:18;1.15;;;1.05;;
11984;SDS011;6052;53.246;10.368;2023-10-09T14:03:59;1.40;;;1.30;;
11984;SDS011;6052;53.246;10.368;2023-10-09T14:06:32;1.20;;;1.10;;
11984;SDS011;6052;53.246;10.368;2023-10-09T14:09:03;1.15;;;1.05;;
11984;SDS011;6052;53.246;10.368;2023-10-09T14:11:35;1.98;;;1.10;;
11984;SDS011;6052;53.246;10.368;2023-10-09T14:14:10;1.13;;;0.98;;
11984;SDS011;6052;53.246;10.368;2023-10-09T14:16:45;1.30;;;1.20;;
11984;SDS011;6052;53.246;10.368;2023-10-09T14:19:14;1.25;;;1.15;;
11984;SDS011;6052;53.246;10.368;2023-10-09T14:21:47;2.58;;;1.50;;
11984;SDS011;6052;53.246;10.368;2023-10-09T14:24:17;1.20;;;1.10;;
11984;SDS011;6052;53.246;10.368;2023-10-09T14:26:52;1.92;;;1.20;;
11984;SDS011;6052;53.246;10.368;2023-10-09T14:29:23;1.48;;;1.30;;
11984;SDS011;6052;53.246;10.368;2023-10-09T14:31:55;1.20;;;1.10;;
11984;SDS011;6052;53.246;10.368;2023-10-09T14:34:29;2.83;;;1.30;;
11984;SDS011;6052;53.246;10.368;2023-10-09T14:37:03;1.55;;;1.40;;
11984;SDS011;6052;53.246;10.368;2023-10-09T14:39:33;1.63;;;1.30;;
11984;SDS011;6052;53.246;10.368;2023-10-09T14:42:03;2.08;;;1.50;;
11984;SDS011;6052;53.246;10.368;2023-10-09T14:44:36;1.85;;;1.40;;
11984;SDS011;6052;53.246;10.368;2023-10-09T14:47:09;2.05;;;1.60;;
11984;SDS011;6052;53.246;10.368;2023-10-09T14:49:41;1.73;;;1.60;;
11984;SDS011;6052;53.246;10.368;2023-10-09T14:52:13;2.22;;;1.45;;
11984;SDS011;6052;53.246;10.368;2023-10-09T14:54:47;1.75;;;1.55;;
11984;SDS011;6052;53.246;10.368;2023-10-09T14:57:17;1.75;;;1.60;;
11984;SDS011;6052;53.246;10.368;2023-10-09T14:59:46;1.60;;;1.50;;
11984;SDS011;6052;53.246;10.368;2023-10-09T15:02:18;1.40;;;1.30;;
11984;SDS011;6052;53.246;10.368;2023-10-09T15:04:50;2.80;;;1.55;;
11984;SDS011;6052;53.246;10.368;2023-10-09T15:07:19;2.90;;;1.88;;
11984;SDS011;6052;53.246;10.368;2023-10-09T15:10:06;2.58;;;2.03;;
11984;SDS011;6052;53.246;10.368;2023-10-09T15:12:41;1.85;;;1.70;;
11984;SDS011;6052;53.246;10.368;2023-10-09T15:15:13;1.65;;;1.55;;
11984;SDS011;6052;53.246;10.368;2023-10-09T15:17:46;2.03;;;1.73;;
11984;SDS011;6052;53.246;10.368;2023-10-09T15:20:15;2.47;;;1.73;;
11984;SDS011;6052;53.246;10.368;2023-10-09T15:22:47;1.83;;;1.60;;
11984;SDS011;6052;53.246;10.368;2023-10-09T15:25:16;1.52;;;1.42;;
11984;SDS011;6052;53.246;10.368;2023-10-09T15:27:46;1.60;;;1.50;;
11984;SDS011;6052;53.246;10.368;2023-10-09T15:30:16;1.75;;;1.65;;
11984;SDS011;6052;53.246;10.368;2023-10-09T15:32:49;2.25;;;1.70;;
11984;SDS011;6052;53.246;10.368;2023-10-09T15:35:18;1.90;;;1.60;;
11984;SDS011;6052;53.246;10.368;2023-10-09T15:37:48;1.42;;;1.33;;
11984;SDS011;6052;53.246;10.368;2023-10-09T15:40:19;1.40;;;1.30;;
11984;SDS011;6052;53.246;10.368;2023-10-09T15:42:50;1.60;;;1.42;;
11984;SDS011;6052;53.246;10.368;2023-10-09T15:45:22;2.28;;;1.83;;
11984;SDS011;6052;53.246;10.368;2023-10-09T15:47:57;2.75;;;1.90;;
11984;SDS011;6052;53.246;10.368;2023-10-09T15:50:31;4.20;;;2.40;;